Sublette, Missouri
Current Conditions -  °F | °C
As of 11:55 PM on Friday 24 Oct 2014 (Local Time) from KIRK Reporting Station
Clear Clear  
Wind Chill: 60°   Ceiling: Unl
Heat Index: 60°   Visibility: 8mi
Dew Point: 59°   Wind: 0mph
Humidity: 96%   Direction: NA
Pressure: 29.99"   Gusts: NA
Location:  40.3435°N, 92.5364°W
Report Text: KIRK 250455Z AUTO 00000KT 8SM CLR 16/15 A2999 RMK AO2 SLP156 T01560150
Loading
Personal Weather Stations






























Interactive Weather Map
Tropical Storm Tracking
New forecast layout! Learn more

10-Day Weather Forecast

Advertisements
Track Severe Weather on mobile